Aérodrome :
LOGIN :

S'inscrire | Disclaimer

   EN    FR    IT 

 










Légende :    VFR   VFR Marginal   IFR   IFR Intensif   IFR Très Intensif
Visi : 
Plafond : 
>= 8 km
>= 3000ft
5 à 8 km
1000 à 3000 ft
1500m à 5 km
500 à 1000 ft
800 à 1500m
200 à 500 ft
< 800m
< 200 ft
Symboles :   Orages  Brouillard  Fortes neiges  Fortes précipitations  Vent > 20 kt
SIGMETs :   Divers  Orages  Givrage  Turbulence  Onde Orograph.  Cendres Volcan.







- Altitude de l'aérodrome : 11 ft
- Code IATA : PVK


LGPZ - Aktion Lefkada Preveza

DERNIER METAR :
  • 150650Z 07006KT 7000 -TSRA SCT016CB SCT018TCU BKN070 14/10 Q1012 RMK SCT020 CB AROUND STATION WHT

METARs EXPIRÉS :
  • 150620Z 15005KT 7000 TS SCT016CB FEW018TCU BKN025 BKN070 15/11 Q1012
  • 150550Z 14007KT 7000 -TSRA SCT016CB FEW018TCU BKN025 BKN070 15/12 Q1012 RMK CB AROUND STATION WHT
  • 150520Z 15012KT 7000 -TSRA SCT016CB FEW018TCU BKN025 BKN070 15/13 Q1012
  • 150450Z 00000KT 9000 TS FEW016CB FEW018TCU BKN025 BKN070 15/11 Q1012
  • 150420Z 06005KT 8000 TSRA FEW016CB FEW018TCU BKN025 BKN070 13/12 Q1012

TAF TAF LGPZ
Valide du 15 à 06h jusqu'au 16 à 06h UTC


150500Z 1506/1606 14015KT 9999 FEW010 BKN025 BKN070
PROB40
TEMPO 1506/1606 5000 RA
PROB40
TEMPO 1506/1606 3000 TSRA SCT010 SCT016CB BKN020 OVC070
TEMPO 1506/1515 15015G25KT
Pas de NOTAMs connus pour ce terrain.
2 SIGMETs publiés pour la FIR Athinai (LGGG) :
 
Orages noyés dans la masse
LGGG SIGMET 4 VALID 150701/151059 LGAT
LGGG ATHINAI FIR/UIR EMBD TS OBS SW OF LINE N4030 E02100 - N3550 E02400 STNR NC=
Orages noyés dans la masse
LGGG SIGMET 3 VALID 150659/151059 LGAT
LGGG ATHINAI FIR/UIR EMBD TS OBS SW LINE N4030 E02100 - N3550 E02400 STNR NC=



MET'MAP, la Météo Aéronautique d'un coup d'oeil ! - Copyright ORBIFLY Décembre 2007 - Disclaimer

ORBIFLY MET'MAP TEAM :

Programmation & Développement : Alexandra Zaïnal
Conception & Développement : Baudouin d'Aumeries
Co-Programmation & Développement : Marc-Olivier Méhu
Soutien technique & logistique : Manuel Goepfert

Contact : metmap@orbifly.com




SOURCES & CREDITS :

   NOAA